sensor_id;sensor_type;location;lat;lon;timestamp;temperature;humidity
20141;DHT22;10231;47.702;9.826;2024-02-14T00:00:12;2.30;99.90
20141;DHT22;10231;47.702;9.826;2024-02-14T00:02:44;2.40;99.90
20141;DHT22;10231;47.702;9.826;2024-02-14T00:05:10;2.30;99.90
20141;DHT22;10231;47.702;9.826;2024-02-14T00:07:39;2.30;99.90
20141;DHT22;10231;47.702;9.826;2024-02-14T00:10:05;2.30;99.90
20141;DHT22;10231;47.702;9.826;2024-02-14T00:12:32;2.40;99.90
20141;DHT22;10231;47.702;9.826;2024-02-14T00:14:57;2.50;99.90
20141;DHT22;10231;47.702;9.826;2024-02-14T00:17:23;2.50;99.90
20141;DHT22;10231;47.702;9.826;2024-02-14T00:19:49;2.60;99.90
20141;DHT22;10231;47.702;9.826;2024-02-14T00:22:14;2.50;99.90
20141;DHT22;10231;47.702;9.826;2024-02-14T00:24:41;2.60;99.90
20141;DHT22;10231;47.702;9.826;2024-02-14T00:27:06;2.70;99.90
20141;DHT22;10231;47.702;9.826;2024-02-14T00:29:32;2.60;99.90
20141;DHT22;10231;47.702;9.826;2024-02-14T00:32:00;2.80;99.90
20141;DHT22;10231;47.702;9.826;2024-02-14T00:34:25;2.70;99.90
20141;DHT22;10231;47.702;9.826;2024-02-14T00:36:51;2.70;99.90
20141;DHT22;10231;47.702;9.826;2024-02-14T00:39:16;2.70;99.90
20141;DHT22;10231;47.702;9.826;2024-02-14T00:41:42;2.70;99.90
20141;DHT22;10231;47.702;9.826;2024-02-14T00:44:08;2.70;99.90
20141;DHT22;10231;47.702;9.826;2024-02-14T00:46:33;2.70;99.90
20141;DHT22;10231;47.702;9.826;2024-02-14T00:48:59;2.60;99.90
20141;DHT22;10231;47.702;9.826;2024-02-14T00:51:25;2.50;99.90
20141;DHT22;10231;47.702;9.826;2024-02-14T00:53:52;2.40;99.90
20141;DHT22;10231;47.702;9.826;2024-02-14T00:56:17;2.50;99.90
20141;DHT22;10231;47.702;9.826;2024-02-14T00:58:43;2.40;99.90
20141;DHT22;10231;47.702;9.826;2024-02-14T01:01:09;2.40;99.90
20141;DHT22;10231;47.702;9.826;2024-02-14T01:03:34;2.40;99.90
20141;DHT22;10231;47.702;9.826;2024-02-14T01:06:00;2.40;99.90
20141;DHT22;10231;47.702;9.826;2024-02-14T01:08:25;2.50;99.90
20141;DHT22;10231;47.702;9.826;2024-02-14T01:10:51;2.60;99.90
20141;DHT22;10231;47.702;9.826;2024-02-14T01:13:18;2.60;99.90
20141;DHT22;10231;47.702;9.826;2024-02-14T01:15:43;2.70;99.90
20141;DHT22;10231;47.702;9.826;2024-02-14T01:18:09;2.50;99.90
20141;DHT22;10231;47.702;9.826;2024-02-14T01:20:35;2.50;99.90
20141;DHT22;10231;47.702;9.826;2024-02-14T01:23:01;2.50;99.90
20141;DHT22;10231;47.702;9.826;2024-02-14T01:25:26;2.50;99.90
20141;DHT22;10231;47.702;9.826;2024-02-14T01:27:52;2.50;99.90
20141;DHT22;10231;47.702;9.826;2024-02-14T01:30:21;2.40;99.90
20141;DHT22;10231;47.702;9.826;2024-02-14T01:32:46;2.40;99.90
20141;DHT22;10231;47.702;9.826;2024-02-14T01:35:12;2.40;99.90
20141;DHT22;10231;47.702;9.826;2024-02-14T01:37:38;2.50;99.90
20141;DHT22;10231;47.702;9.826;2024-02-14T01:40:05;2.50;99.90
20141;DHT22;10231;47.702;9.826;2024-02-14T01:42:32;2.50;99.90
20141;DHT22;10231;47.702;9.826;2024-02-14T01:44:58;2.70;99.90
20141;DHT22;10231;47.702;9.826;2024-02-14T01:47:23;2.70;99.90
20141;DHT22;10231;47.702;9.826;2024-02-14T01:49:49;2.70;99.90
20141;DHT22;10231;47.702;9.826;2024-02-14T01:52:15;2.80;99.90
20141;DHT22;10231;47.702;9.826;2024-02-14T01:54:41;2.80;99.90
20141;DHT22;10231;47.702;9.826;2024-02-14T01:57:08;2.80;99.90
20141;DHT22;10231;47.702;9.826;2024-02-14T01:59:34;2.80;99.90
20141;DHT22;10231;47.702;9.826;2024-02-14T02:02:00;2.90;99.90
20141;DHT22;10231;47.702;9.826;2024-02-14T02:04:27;2.90;99.90
20141;DHT22;10231;47.702;9.826;2024-02-14T02:06:52;2.90;99.90
20141;DHT22;10231;47.702;9.826;2024-02-14T02:09:22;2.80;99.90
20141;DHT22;10231;47.702;9.826;2024-02-14T02:11:51;2.80;99.90
20141;DHT22;10231;47.702;9.826;2024-02-14T02:14:19;2.90;99.90
20141;DHT22;10231;47.702;9.826;2024-02-14T02:16:45;2.80;99.90
20141;DHT22;10231;47.702;9.826;2024-02-14T02:19:11;2.90;99.90
20141;DHT22;10231;47.702;9.826;2024-02-14T02:21:37;2.90;99.90
20141;DHT22;10231;47.702;9.826;2024-02-14T02:24:03;2.80;99.90
20141;DHT22;10231;47.702;9.826;2024-02-14T02:26:29;2.80;99.90
20141;DHT22;10231;47.702;9.826;2024-02-14T02:28:54;2.80;99.90
20141;DHT22;10231;47.702;9.826;2024-02-14T02:31:20;3.00;99.90
20141;DHT22;10231;47.702;9.826;2024-02-14T02:33:46;3.10;99.90
20141;DHT22;10231;47.702;9.826;2024-02-14T02:36:12;3.20;99.90
20141;DHT22;10231;47.702;9.826;2024-02-14T02:38:38;3.30;99.90
20141;DHT22;10231;47.702;9.826;2024-02-14T02:41:04;3.20;99.90
20141;DHT22;10231;47.702;9.826;2024-02-14T02:43:32;3.10;99.90
20141;DHT22;10231;47.702;9.826;2024-02-14T02:45:58;3.10;99.90
20141;DHT22;10231;47.702;9.826;2024-02-14T02:48:24;3.10;99.90
20141;DHT22;10231;47.702;9.826;2024-02-14T02:50:50;3.20;99.90
20141;DHT22;10231;47.702;9.826;2024-02-14T02:53:16;3.10;99.90
20141;DHT22;10231;47.702;9.826;2024-02-14T02:55:42;3.00;99.90
20141;DHT22;10231;47.702;9.826;2024-02-14T02:58:09;2.90;99.90
20141;DHT22;10231;47.702;9.826;2024-02-14T03:00:35;2.80;99.90
20141;DHT22;10231;47.702;9.826;2024-02-14T03:03:01;2.90;99.90
20141;DHT22;10231;47.702;9.826;2024-02-14T03:05:28;2.90;99.90
20141;DHT22;10231;47.702;9.826;2024-02-14T03:07:56;3.00;99.90
20141;DHT22;10231;47.702;9.826;2024-02-14T03:10:23;3.00;99.90
20141;DHT22;10231;47.702;9.826;2024-02-14T03:12:50;3.10;99.90
20141;DHT22;10231;47.702;9.826;2024-02-14T03:15:16;3.00;99.90
20141;DHT22;10231;47.702;9.826;2024-02-14T03:17:42;3.10;99.90
20141;DHT22;10231;47.702;9.826;2024-02-14T03:20:08;3.10;99.90
20141;DHT22;10231;47.702;9.826;2024-02-14T03:22:43;3.10;99.90
20141;DHT22;10231;47.702;9.826;2024-02-14T03:25:13;3.20;99.90
20141;DHT22;10231;47.702;9.826;2024-02-14T03:27:41;3.20;99.90
20141;DHT22;10231;47.702;9.826;2024-02-14T03:30:07;3.20;99.90
20141;DHT22;10231;47.702;9.826;2024-02-14T03:32:33;3.10;99.90
20141;DHT22;10231;47.702;9.826;2024-02-14T03:34:59;3.10;99.90
20141;DHT22;10231;47.702;9.826;2024-02-14T03:37:26;3.10;99.90
20141;DHT22;10231;47.702;9.826;2024-02-14T03:39:52;3.10;99.90
20141;DHT22;10231;47.702;9.826;2024-02-14T03:42:17;3.10;99.90
20141;DHT22;10231;47.702;9.826;2024-02-14T03:44:45;3.20;99.90
20141;DHT22;10231;47.702;9.826;2024-02-14T03:47:11;3.20;99.90
20141;DHT22;10231;47.702;9.826;2024-02-14T03:49:37;3.20;99.90
20141;DHT22;10231;47.702;9.826;2024-02-14T03:52:04;3.20;99.90
20141;DHT22;10231;47.702;9.826;2024-02-14T03:54:38;3.20;99.90
20141;DHT22;10231;47.702;9.826;2024-02-14T03:57:04;3.30;99.90
20141;DHT22;10231;47.702;9.826;2024-02-14T03:59:35;3.40;99.90
20141;DHT22;10231;47.702;9.826;2024-02-14T04:02:01;3.30;99.90
20141;DHT22;10231;47.702;9.826;2024-02-14T04:04:26;3.30;99.90
20141;DHT22;10231;47.702;9.826;2024-02-14T04:06:52;3.20;99.90
20141;DHT22;10231;47.702;9.826;2024-02-14T04:09:18;3.10;99.90
20141;DHT22;10231;47.702;9.826;2024-02-14T04:11:43;3.10;99.90
20141;DHT22;10231;47.702;9.826;2024-02-14T04:14:10;3.10;99.90
20141;DHT22;10231;47.702;9.826;2024-02-14T04:16:36;3.10;99.90
20141;DHT22;10231;47.702;9.826;2024-02-14T04:19:02;3.00;99.90
20141;DHT22;10231;47.702;9.826;2024-02-14T04:21:28;3.00;99.90
20141;DHT22;10231;47.702;9.826;2024-02-14T04:23:54;3.00;99.90
20141;DHT22;10231;47.702;9.826;2024-02-14T04:26:20;2.90;99.90
20141;DHT22;10231;47.702;9.826;2024-02-14T04:28:46;2.90;99.90
20141;DHT22;10231;47.702;9.826;2024-02-14T04:31:11;2.80;99.90
20141;DHT22;10231;47.702;9.826;2024-02-14T04:33:37;2.90;99.90
20141;DHT22;10231;47.702;9.826;2024-02-14T04:36:02;2.90;99.90
20141;DHT22;10231;47.702;9.826;2024-02-14T04:38:29;3.10;99.90
20141;DHT22;10231;47.702;9.826;2024-02-14T04:40:55;3.00;99.90
20141;DHT22;10231;47.702;9.826;2024-02-14T04:43:22;3.00;99.90
20141;DHT22;10231;47.702;9.826;2024-02-14T04:45:47;3.00;99.90
20141;DHT22;10231;47.702;9.826;2024-02-14T04:48:13;3.20;99.90
20141;DHT22;10231;47.702;9.826;2024-02-14T04:50:39;3.20;99.90
20141;DHT22;10231;47.702;9.826;2024-02-14T04:53:05;3.30;99.90
20141;DHT22;10231;47.702;9.826;2024-02-14T04:55:30;3.30;99.90
20141;DHT22;10231;47.702;9.826;2024-02-14T04:57:56;3.50;99.90
20141;DHT22;10231;47.702;9.826;2024-02-14T05:00:21;3.70;99.90
20141;DHT22;10231;47.702;9.826;2024-02-14T05:02:47;3.80;99.90
20141;DHT22;10231;47.702;9.826;2024-02-14T05:05:12;3.80;99.90
20141;DHT22;10231;47.702;9.826;2024-02-14T05:07:38;3.80;99.90
20141;DHT22;10231;47.702;9.826;2024-02-14T05:10:04;3.80;99.90
20141;DHT22;10231;47.702;9.826;2024-02-14T05:12:30;3.80;99.90
20141;DHT22;10231;47.702;9.826;2024-02-14T05:14:55;3.80;99.90
20141;DHT22;10231;47.702;9.826;2024-02-14T05:17:21;3.80;99.90
20141;DHT22;10231;47.702;9.826;2024-02-14T05:19:46;3.80;99.90
20141;DHT22;10231;47.702;9.826;2024-02-14T05:22:12;3.80;99.90
20141;DHT22;10231;47.702;9.826;2024-02-14T05:24:37;3.80;99.90
20141;DHT22;10231;47.702;9.826;2024-02-14T05:27:04;3.80;99.90
20141;DHT22;10231;47.702;9.826;2024-02-14T05:29:30;3.70;99.90
20141;DHT22;10231;47.702;9.826;2024-02-14T05:31:56;3.70;99.90
20141;DHT22;10231;47.702;9.826;2024-02-14T05:34:21;3.80;99.90
20141;DHT22;10231;47.702;9.826;2024-02-14T05:36:47;3.80;99.90
20141;DHT22;10231;47.702;9.826;2024-02-14T05:39:13;3.80;99.90
20141;DHT22;10231;47.702;9.826;2024-02-14T05:41:39;3.70;99.90
20141;DHT22;10231;47.702;9.826;2024-02-14T05:44:05;3.80;99.90
20141;DHT22;10231;47.702;9.826;2024-02-14T05:46:31;3.80;99.90
20141;DHT22;10231;47.702;9.826;2024-02-14T05:48:56;3.80;99.90
20141;DHT22;10231;47.702;9.826;2024-02-14T05:51:23;3.80;99.90
20141;DHT22;10231;47.702;9.826;2024-02-14T05:53:49;3.80;99.90
20141;DHT22;10231;47.702;9.826;2024-02-14T05:56:14;3.90;99.90
20141;DHT22;10231;47.702;9.826;2024-02-14T05:58:40;3.90;99.90
20141;DHT22;10231;47.702;9.826;2024-02-14T06:01:05;4.00;99.90
20141;DHT22;10231;47.702;9.826;2024-02-14T06:03:31;4.00;99.90
20141;DHT22;10231;47.702;9.826;2024-02-14T06:05:57;4.00;99.90
20141;DHT22;10231;47.702;9.826;2024-02-14T06:08:23;4.00;99.90
20141;DHT22;10231;47.702;9.826;2024-02-14T06:10:52;4.00;99.90
20141;DHT22;10231;47.702;9.826;2024-02-14T06:13:18;4.00;99.90
20141;DHT22;10231;47.702;9.826;2024-02-14T06:15:44;4.00;99.90
20141;DHT22;10231;47.702;9.826;2024-02-14T06:18:09;4.00;99.90
20141;DHT22;10231;47.702;9.826;2024-02-14T06:20:35;4.00;99.90
20141;DHT22;10231;47.702;9.826;2024-02-14T06:23:01;4.00;99.90
20141;DHT22;10231;47.702;9.826;2024-02-14T06:25:27;3.90;99.90
20141;DHT22;10231;47.702;9.826;2024-02-14T06:27:52;3.90;99.90
20141;DHT22;10231;47.702;9.826;2024-02-14T06:30:19;3.80;99.90
20141;DHT22;10231;47.702;9.826;2024-02-14T06:32:45;3.90;99.90
20141;DHT22;10231;47.702;9.826;2024-02-14T06:35:10;3.90;99.90
20141;DHT22;10231;47.702;9.826;2024-02-14T06:37:36;4.00;99.90
20141;DHT22;10231;47.702;9.826;2024-02-14T06:40:02;4.00;99.90
20141;DHT22;10231;47.702;9.826;2024-02-14T06:42:28;4.10;99.90
20141;DHT22;10231;47.702;9.826;2024-02-14T06:44:53;4.20;99.90
20141;DHT22;10231;47.702;9.826;2024-02-14T06:47:19;4.20;99.90
20141;DHT22;10231;47.702;9.826;2024-02-14T06:49:44;4.20;99.90
20141;DHT22;10231;47.702;9.826;2024-02-14T06:52:10;4.20;99.90
20141;DHT22;10231;47.702;9.826;2024-02-14T06:54:36;4.30;99.90
20141;DHT22;10231;47.702;9.826;2024-02-14T06:57:01;4.30;99.90
20141;DHT22;10231;47.702;9.826;2024-02-14T06:59:27;4.30;99.90
20141;DHT22;10231;47.702;9.826;2024-02-14T07:01:52;4.40;99.90
20141;DHT22;10231;47.702;9.826;2024-02-14T07:04:21;4.40;99.90
20141;DHT22;10231;47.702;9.826;2024-02-14T07:06:54;4.40;99.90
20141;DHT22;10231;47.702;9.826;2024-02-14T07:09:19;4.40;99.90
20141;DHT22;10231;47.702;9.826;2024-02-14T07:11:45;4.50;99.90
20141;DHT22;10231;47.702;9.826;2024-02-14T07:14:14;4.50;99.90
20141;DHT22;10231;47.702;9.826;2024-02-14T07:16:40;4.50;99.90
20141;DHT22;10231;47.702;9.826;2024-02-14T07:19:05;4.60;99.90
20141;DHT22;10231;47.702;9.826;2024-02-14T07:21:31;4.60;99.90
20141;DHT22;10231;47.702;9.826;2024-02-14T07:23:58;4.60;99.90
20141;DHT22;10231;47.702;9.826;2024-02-14T07:26:24;4.60;99.90
20141;DHT22;10231;47.702;9.826;2024-02-14T07:28:49;4.60;99.90
20141;DHT22;10231;47.702;9.826;2024-02-14T07:31:15;4.60;99.90
20141;DHT22;10231;47.702;9.826;2024-02-14T07:33:40;4.60;99.90
20141;DHT22;10231;47.702;9.826;2024-02-14T07:36:06;4.60;99.90
20141;DHT22;10231;47.702;9.826;2024-02-14T07:38:31;4.70;99.90
20141;DHT22;10231;47.702;9.826;2024-02-14T07:40:57;4.70;99.90
20141;DHT22;10231;47.702;9.826;2024-02-14T07:43:22;4.70;99.90
20141;DHT22;10231;47.702;9.826;2024-02-14T07:45:48;4.70;99.90
20141;DHT22;10231;47.702;9.826;2024-02-14T07:48:14;4.70;99.90
20141;DHT22;10231;47.702;9.826;2024-02-14T07:50:39;4.60;99.90
20141;DHT22;10231;47.702;9.826;2024-02-14T07:53:05;4.70;99.90
20141;DHT22;10231;47.702;9.826;2024-02-14T07:55:31;4.70;99.90
20141;DHT22;10231;47.702;9.826;2024-02-14T07:57:57;4.70;99.90
20141;DHT22;10231;47.702;9.826;2024-02-14T08:00:22;4.80;99.90
20141;DHT22;10231;47.702;9.826;2024-02-14T08:02:49;4.90;99.90
20141;DHT22;10231;47.702;9.826;2024-02-14T08:05:14;5.00;99.90
20141;DHT22;10231;47.702;9.826;2024-02-14T08:07:40;5.00;99.90
20141;DHT22;10231;47.702;9.826;2024-02-14T08:10:06;5.10;99.90
20141;DHT22;10231;47.702;9.826;2024-02-14T08:12:31;5.20;99.90
20141;DHT22;10231;47.702;9.826;2024-02-14T08:14:57;5.30;99.90
20141;DHT22;10231;47.702;9.826;2024-02-14T08:17:22;5.30;99.90
20141;DHT22;10231;47.702;9.826;2024-02-14T08:19:48;5.40;99.90
20141;DHT22;10231;47.702;9.826;2024-02-14T08:22:13;5.40;99.90
20141;DHT22;10231;47.702;9.826;2024-02-14T08:24:39;5.60;99.90
20141;DHT22;10231;47.702;9.826;2024-02-14T08:27:05;5.60;99.90
20141;DHT22;10231;47.702;9.826;2024-02-14T08:29:33;5.70;99.90
20141;DHT22;10231;47.702;9.826;2024-02-14T08:31:58;5.80;99.90
20141;DHT22;10231;47.702;9.826;2024-02-14T08:34:24;5.90;99.90
20141;DHT22;10231;47.702;9.826;2024-02-14T08:36:49;6.10;99.90
20141;DHT22;10231;47.702;9.826;2024-02-14T08:39:15;6.10;99.90
20141;DHT22;10231;47.702;9.826;2024-02-14T08:41:43;6.10;99.90
20141;DHT22;10231;47.702;9.826;2024-02-14T08:44:10;6.10;99.90
20141;DHT22;10231;47.702;9.826;2024-02-14T08:46:36;6.10;99.90
20141;DHT22;10231;47.702;9.826;2024-02-14T08:49:02;6.20;99.90
20141;DHT22;10231;47.702;9.826;2024-02-14T08:51:28;6.30;99.90
20141;DHT22;10231;47.702;9.826;2024-02-14T08:53:54;6.30;99.90
20141;DHT22;10231;47.702;9.826;2024-02-14T08:56:24;6.40;99.90
20141;DHT22;10231;47.702;9.826;2024-02-14T08:58:50;6.50;99.90
20141;DHT22;10231;47.702;9.826;2024-02-14T09:01:15;6.70;99.90
20141;DHT22;10231;47.702;9.826;2024-02-14T09:03:44;6.70;99.90
20141;DHT22;10231;47.702;9.826;2024-02-14T09:06:14;6.80;99.90
20141;DHT22;10231;47.702;9.826;2024-02-14T09:08:40;6.90;99.90
20141;DHT22;10231;47.702;9.826;2024-02-14T09:11:06;6.90;99.90
20141;DHT22;10231;47.702;9.826;2024-02-14T09:13:32;7.00;99.90
20141;DHT22;10231;47.702;9.826;2024-02-14T09:15:57;7.10;99.90
20141;DHT22;10231;47.702;9.826;2024-02-14T09:18:23;7.20;99.90
20141;DHT22;10231;47.702;9.826;2024-02-14T09:20:50;7.20;99.90
20141;DHT22;10231;47.702;9.826;2024-02-14T09:23:16;7.20;99.90
20141;DHT22;10231;47.702;9.826;2024-02-14T09:25:47;7.30;99.90
20141;DHT22;10231;47.702;9.826;2024-02-14T09:28:13;7.40;99.90
20141;DHT22;10231;47.702;9.826;2024-02-14T09:30:39;7.50;99.90
20141;DHT22;10231;47.702;9.826;2024-02-14T09:33:08;7.50;99.90
20141;DHT22;10231;47.702;9.826;2024-02-14T09:35:34;7.50;99.90
20141;DHT22;10231;47.702;9.826;2024-02-14T09:38:04;7.60;99.90
20141;DHT22;10231;47.702;9.826;2024-02-14T09:40:29;7.60;99.90
20141;DHT22;10231;47.702;9.826;2024-02-14T09:42:56;7.60;99.90
20141;DHT22;10231;47.702;9.826;2024-02-14T09:45:26;7.60;99.90
20141;DHT22;10231;47.702;9.826;2024-02-14T09:47:53;7.70;99.90
20141;DHT22;10231;47.702;9.826;2024-02-14T09:50:19;7.70;99.90
20141;DHT22;10231;47.702;9.826;2024-02-14T09:52:47;7.80;99.90
20141;DHT22;10231;47.702;9.826;2024-02-14T09:55:14;7.90;99.90
20141;DHT22;10231;47.702;9.826;2024-02-14T09:57:42;7.90;99.90
20141;DHT22;10231;47.702;9.826;2024-02-14T10:00:13;8.00;99.90
20141;DHT22;10231;47.702;9.826;2024-02-14T10:02:41;8.00;99.90
20141;DHT22;10231;47.702;9.826;2024-02-14T10:05:10;8.10;99.90
20141;DHT22;10231;47.702;9.826;2024-02-14T10:07:44;8.10;99.90
20141;DHT22;10231;47.702;9.826;2024-02-14T10:10:10;8.10;99.90
20141;DHT22;10231;47.702;9.826;2024-02-14T10:12:36;8.20;99.90
20141;DHT22;10231;47.702;9.826;2024-02-14T10:15:02;8.30;99.90
20141;DHT22;10231;47.702;9.826;2024-02-14T10:17:29;8.30;99.90
20141;DHT22;10231;47.702;9.826;2024-02-14T10:19:59;8.30;99.90
20141;DHT22;10231;47.702;9.826;2024-02-14T10:22:32;8.50;99.90
20141;DHT22;10231;47.702;9.826;2024-02-14T10:24:57;8.50;99.90
20141;DHT22;10231;47.702;9.826;2024-02-14T10:27:23;8.60;99.90
20141;DHT22;10231;47.702;9.826;2024-02-14T10:29:48;8.70;99.90
20141;DHT22;10231;47.702;9.826;2024-02-14T10:32:15;8.70;99.90
20141;DHT22;10231;47.702;9.826;2024-02-14T10:34:43;8.80;99.90
20141;DHT22;10231;47.702;9.826;2024-02-14T10:37:13;8.90;99.90
20141;DHT22;10231;47.702;9.826;2024-02-14T10:39:41;9.00;99.90
20141;DHT22;10231;47.702;9.826;2024-02-14T10:42:07;9.10;99.90
20141;DHT22;10231;47.702;9.826;2024-02-14T10:44:32;9.20;99.90
20141;DHT22;10231;47.702;9.826;2024-02-14T10:47:00;9.20;99.90
20141;DHT22;10231;47.702;9.826;2024-02-14T10:49:28;9.30;99.90
20141;DHT22;10231;47.702;9.826;2024-02-14T10:51:56;9.40;99.90
20141;DHT22;10231;47.702;9.826;2024-02-14T10:54:25;9.50;99.90
20141;DHT22;10231;47.702;9.826;2024-02-14T10:56:54;9.50;99.20
20141;DHT22;10231;47.702;9.826;2024-02-14T10:59:21;9.60;99.10
20141;DHT22;10231;47.702;9.826;2024-02-14T11:01:49;9.60;98.80
20141;DHT22;10231;47.702;9.826;2024-02-14T11:04:16;9.70;98.40
20141;DHT22;10231;47.702;9.826;2024-02-14T11:06:51;9.70;98.00
20141;DHT22;10231;47.702;9.826;2024-02-14T11:09:18;9.70;97.90
20141;DHT22;10231;47.702;9.826;2024-02-14T11:11:44;9.70;99.50
20141;DHT22;10231;47.702;9.826;2024-02-14T11:14:15;9.80;98.90
20141;DHT22;10231;47.702;9.826;2024-02-14T11:16:41;9.80;98.40
20141;DHT22;10231;47.702;9.826;2024-02-14T11:19:11;9.80;98.10
20141;DHT22;10231;47.702;9.826;2024-02-14T11:21:40;9.90;98.40
20141;DHT22;10231;47.702;9.826;2024-02-14T11:24:09;9.90;98.60
20141;DHT22;10231;47.702;9.826;2024-02-14T11:26:48;9.90;98.70
20141;DHT22;10231;47.702;9.826;2024-02-14T11:29:17;9.80;99.70
20141;DHT22;10231;47.702;9.826;2024-02-14T11:31:43;9.80;99.70
20141;DHT22;10231;47.702;9.826;2024-02-14T11:34:11;9.90;99.80
20141;DHT22;10231;47.702;9.826;2024-02-14T11:36:39;9.80;99.00
20141;DHT22;10231;47.702;9.826;2024-02-14T11:39:04;9.80;99.50
20141;DHT22;10231;47.702;9.826;2024-02-14T11:41:32;9.80;99.20
20141;DHT22;10231;47.702;9.826;2024-02-14T11:44:06;9.80;99.10
20141;DHT22;10231;47.702;9.826;2024-02-14T11:46:32;9.80;98.80
20141;DHT22;10231;47.702;9.826;2024-02-14T11:48:59;9.90;98.10
20141;DHT22;10231;47.702;9.826;2024-02-14T11:51:33;9.90;98.40
20141;DHT22;10231;47.702;9.826;2024-02-14T11:54:00;9.80;98.90
20141;DHT22;10231;47.702;9.826;2024-02-14T11:59:02;9.90;99.10
20141;DHT22;10231;47.702;9.826;2024-02-14T12:01:33;9.90;99.20
20141;DHT22;10231;47.702;9.826;2024-02-14T12:04:04;9.90;99.20
20141;DHT22;10231;47.702;9.826;2024-02-14T12:06:31;10.00;99.40
20141;DHT22;10231;47.702;9.826;2024-02-14T12:09:03;10.00;99.60
20141;DHT22;10231;47.702;9.826;2024-02-14T12:11:36;10.00;99.90
20141;DHT22;10231;47.702;9.826;2024-02-14T12:14:06;10.00;99.30
20141;DHT22;10231;47.702;9.826;2024-02-14T12:16:34;10.10;99.90
20141;DHT22;10231;47.702;9.826;2024-02-14T12:19:09;10.10;99.40
20141;DHT22;10231;47.702;9.826;2024-02-14T12:21:36;10.20;99.90
20141;DHT22;10231;47.702;9.826;2024-02-14T12:24:03;10.20;99.40
20141;DHT22;10231;47.702;9.826;2024-02-14T12:26:30;10.30;99.70
20141;DHT22;10231;47.702;9.826;2024-02-14T12:28:56;10.30;99.90
20141;DHT22;10231;47.702;9.826;2024-02-14T12:31:25;10.30;99.60
20141;DHT22;10231;47.702;9.826;2024-02-14T12:33:51;10.30;99.90
20141;DHT22;10231;47.702;9.826;2024-02-14T12:36:20;10.40;99.90
20141;DHT22;10231;47.702;9.826;2024-02-14T12:38:46;10.40;99.90
20141;DHT22;10231;47.702;9.826;2024-02-14T12:41:11;10.50;99.90
20141;DHT22;10231;47.702;9.826;2024-02-14T12:43:37;10.50;98.90
20141;DHT22;10231;47.702;9.826;2024-02-14T12:46:02;10.50;99.40
20141;DHT22;10231;47.702;9.826;2024-02-14T12:48:30;10.50;99.80
20141;DHT22;10231;47.702;9.826;2024-02-14T12:50:56;10.50;99.90
20141;DHT22;10231;47.702;9.826;2024-02-14T12:53:23;10.60;99.60
20141;DHT22;10231;47.702;9.826;2024-02-14T12:55:49;10.50;99.10
20141;DHT22;10231;47.702;9.826;2024-02-14T12:58:15;10.50;99.60
20141;DHT22;10231;47.702;9.826;2024-02-14T13:00:41;10.50;99.80
20141;DHT22;10231;47.702;9.826;2024-02-14T13:03:08;10.50;99.90
20141;DHT22;10231;47.702;9.826;2024-02-14T13:05:36;10.60;99.90
20141;DHT22;10231;47.702;9.826;2024-02-14T13:08:02;10.60;99.90
20141;DHT22;10231;47.702;9.826;2024-02-14T13:10:27;10.70;99.90
20141;DHT22;10231;47.702;9.826;2024-02-14T13:12:53;10.70;99.90
20141;DHT22;10231;47.702;9.826;2024-02-14T13:15:18;10.70;99.90
20141;DHT22;10231;47.702;9.826;2024-02-14T13:17:44;10.70;99.90
20141;DHT22;10231;47.702;9.826;2024-02-14T13:20:10;10.80;99.90
20141;DHT22;10231;47.702;9.826;2024-02-14T13:22:37;10.80;99.90
20141;DHT22;10231;47.702;9.826;2024-02-14T13:25:02;10.80;99.90
20141;DHT22;10231;47.702;9.826;2024-02-14T13:27:30;10.90;99.90
20141;DHT22;10231;47.702;9.826;2024-02-14T13:29:55;11.00;99.90
20141;DHT22;10231;47.702;9.826;2024-02-14T13:32:21;11.10;99.90
20141;DHT22;10231;47.702;9.826;2024-02-14T13:34:47;11.20;99.90
20141;DHT22;10231;47.702;9.826;2024-02-14T13:37:13;11.20;99.90
20141;DHT22;10231;47.702;9.826;2024-02-14T13:39:40;11.30;99.90
20141;DHT22;10231;47.702;9.826;2024-02-14T13:42:05;11.30;99.90
20141;DHT22;10231;47.702;9.826;2024-02-14T13:44:33;11.30;99.90
20141;DHT22;10231;47.702;9.826;2024-02-14T13:46:58;11.30;99.90
20141;DHT22;10231;47.702;9.826;2024-02-14T13:49:25;11.30;99.90
20141;DHT22;10231;47.702;9.826;2024-02-14T13:51:51;11.40;99.90
20141;DHT22;10231;47.702;9.826;2024-02-14T13:54:21;11.40;99.90
20141;DHT22;10231;47.702;9.826;2024-02-14T13:56:47;11.40;99.90
20141;DHT22;10231;47.702;9.826;2024-02-14T13:59:14;11.40;99.90
20141;DHT22;10231;47.702;9.826;2024-02-14T14:01:40;11.40;99.90
20141;DHT22;10231;47.702;9.826;2024-02-14T14:04:06;11.30;99.90
20141;DHT22;10231;47.702;9.826;2024-02-14T14:06:32;11.30;99.90
20141;DHT22;10231;47.702;9.826;2024-02-14T14:08:58;11.30;99.90
20141;DHT22;10231;47.702;9.826;2024-02-14T14:11:24;11.20;99.90
20141;DHT22;10231;47.702;9.826;2024-02-14T14:13:50;11.20;99.90
20141;DHT22;10231;47.702;9.826;2024-02-14T14:16:15;11.20;99.90
20141;DHT22;10231;47.702;9.826;2024-02-14T14:18:41;11.10;99.90
20141;DHT22;10231;47.702;9.826;2024-02-14T14:21:06;11.20;99.90
20141;DHT22;10231;47.702;9.826;2024-02-14T14:23:32;11.30;99.90
20141;DHT22;10231;47.702;9.826;2024-02-14T14:25:58;11.40;99.90
20141;DHT22;10231;47.702;9.826;2024-02-14T14:28:24;11.60;99.90
20141;DHT22;10231;47.702;9.826;2024-02-14T14:30:54;12.00;99.90
20141;DHT22;10231;47.702;9.826;2024-02-14T14:33:20;12.30;99.90
20141;DHT22;10231;47.702;9.826;2024-02-14T14:35:46;12.40;99.90
20141;DHT22;10231;47.702;9.826;2024-02-14T14:38:12;12.40;99.90
20141;DHT22;10231;47.702;9.826;2024-02-14T14:40:37;12.40;99.90
20141;DHT22;10231;47.702;9.826;2024-02-14T14:43:04;12.40;99.90
20141;DHT22;10231;47.702;9.826;2024-02-14T14:45:29;12.30;99.90
20141;DHT22;10231;47.702;9.826;2024-02-14T14:47:56;12.30;99.90
20141;DHT22;10231;47.702;9.826;2024-02-14T14:50:22;12.20;99.90
20141;DHT22;10231;47.702;9.826;2024-02-14T14:52:47;12.20;99.90
20141;DHT22;10231;47.702;9.826;2024-02-14T14:55:13;12.10;99.90
20141;DHT22;10231;47.702;9.826;2024-02-14T14:57:39;12.00;99.90
20141;DHT22;10231;47.702;9.826;2024-02-14T15:00:08;12.00;99.90
20141;DHT22;10231;47.702;9.826;2024-02-14T15:02:41;12.00;99.90
20141;DHT22;10231;47.702;9.826;2024-02-14T15:05:13;12.10;99.90
20141;DHT22;10231;47.702;9.826;2024-02-14T15:07:40;12.10;99.90
20141;DHT22;10231;47.702;9.826;2024-02-14T15:10:06;12.20;99.90
20141;DHT22;10231;47.702;9.826;2024-02-14T15:12:33;12.20;99.90
20141;DHT22;10231;47.702;9.826;2024-02-14T15:15:02;12.20;99.90
20141;DHT22;10231;47.702;9.826;2024-02-14T15:17:28;12.20;99.90
20141;DHT22;10231;47.702;9.826;2024-02-14T15:19:55;12.20;99.90
20141;DHT22;10231;47.702;9.826;2024-02-14T15:22:21;12.20;99.90
20141;DHT22;10231;47.702;9.826;2024-02-14T15:24:46;12.20;99.90
20141;DHT22;10231;47.702;9.826;2024-02-14T15:27:12;12.20;99.90
20141;DHT22;10231;47.702;9.826;2024-02-14T15:29:47;12.10;99.90
20141;DHT22;10231;47.702;9.826;2024-02-14T15:32:31;12.10;99.90
20141;DHT22;10231;47.702;9.826;2024-02-14T15:35:15;12.00;99.90
20141;DHT22;10231;47.702;9.826;2024-02-14T15:37:41;11.90;99.90
20141;DHT22;10231;47.702;9.826;2024-02-14T15:40:08;11.80;99.90